Time;durP1;ratioP1;P1;durP2;ratioP2;P2;SDS_P1;SDS_P2;PMS_P1;PMS_P2;Temp;Humidity;BMP_temperature;BMP_pressure;BME280_temperature;BME280_humidity;BME280_pressure;Samples;Min_cycle;Max_cycle;Signal;HPM_P1;HPM_P2
2023/04/26 00:00:12;;;;;;;;;28.33;22.33;;;;;15.32;54.15;101100.91;4978164;28;45491;-81
2023/04/26 00:02:38;;;;;;;;;27.00;23.33;;;;;15.29;54.21;101106.28;4962710;28;45472;-81
2023/04/26 00:05:06;;;;;;;;;20.00;19.33;;;;;15.35;53.83;101108.06;4964644;28;45705;-80
2023/04/26 00:07:31;;;;;;;;;21.00;18.33;;;;;15.24;54.34;101097.34;4978771;28;45535;-82
2023/04/26 00:09:56;;;;;;;;;22.67;21.00;;;;;15.26;54.16;101103.59;4964573;28;45434;-81
2023/04/26 00:12:22;;;;;;;;;20.33;19.33;;;;;15.28;54.54;101106.28;4980705;28;45734;-81
2023/04/26 00:14:49;;;;;;;;;22.00;22.00;;;;;15.58;54.91;101095.53;4963952;28;45461;-81
2023/04/26 00:17:14;;;;;;;;;22.00;21.67;;;;;15.17;55.27;101084.84;4978545;28;45607;-81
2023/04/26 00:19:40;;;;;;;;;21.67;21.67;;;;;15.15;52.96;101089.31;4962065;28;45433;-81
2023/04/26 00:22:05;;;;;;;;;15.67;15.67;;;;;15.17;55.01;101087.53;4963195;28;44719;-81
2023/04/26 00:24:31;;;;;;;;;20.67;16.00;;;;;15.19;55.17;101072.34;4963217;28;47109;-80
2023/04/26 00:26:57;;;;;;;;;21.67;18.00;;;;;15.15;54.80;101084.84;4963814;28;45444;-81
2023/04/26 00:29:22;;;;;;;;;22.00;21.00;;;;;15.09;54.57;101078.56;4957455;28;45500;-81
2023/04/26 00:31:49;;;;;;;;;20.33;20.33;;;;;15.34;53.94;101069.66;4962457;28;45389;-81
2023/04/26 00:34:15;;;;;;;;;17.67;13.33;;;;;15.03;55.42;101073.19;4964367;28;45458;-81
2023/04/26 00:36:40;;;;;;;;;17.00;17.00;;;;;15.07;55.26;101069.63;4963800;28;45511;-81
2023/04/26 00:39:08;;;;;;;;;18.33;16.00;;;;;15.35;55.33;101068.78;4963504;28;45463;-81
2023/04/26 00:41:33;;;;;;;;;20.67;19.00;;;;;15.06;55.36;101068.75;4961709;28;45408;-81
2023/04/26 00:43:59;;;;;;;;;18.00;18.00;;;;;14.98;55.32;101065.16;4956181;28;47110;-81
2023/04/26 00:46:27;;;;;;;;;19.33;17.33;;;;;14.99;55.19;101070.53;4978889;28;45455;-81
2023/04/26 00:48:53;;;;;;;;;14.67;14.00;;;;;14.94;55.40;101064.25;4962774;28;45427;-81
2023/04/26 00:51:19;;;;;;;;;17.67;15.33;;;;;14.98;55.91;101054.47;4961526;28;45351;-81
2023/04/26 00:53:45;;;;;;;;;18.00;16.00;;;;;14.88;55.20;101055.34;4961755;28;48546;-81
2023/04/26 00:56:11;;;;;;;;;17.00;16.00;;;;;15.03;55.84;101055.38;4961942;28;45833;-81
2023/04/26 00:58:37;;;;;;;;;20.00;18.00;;;;;14.91;55.39;101050.88;4978048;28;45524;-81
2023/04/26 01:01:02;;;;;;;;;21.00;20.67;;;;;14.69;54.33;101031.22;4964271;28;45479;-81
2023/04/26 01:03:29;;;;;;;;;22.33;20.33;;;;;14.74;54.60;101050.84;4974297;28;45403;-82
2023/04/26 01:05:55;;;;;;;;;19.33;18.33;;;;;14.65;55.16;101044.59;4983929;28;45390;-81
2023/04/26 01:11:43;;;;;;;;;19.33;19.33;;;;;14.46;53.83;101038.25;4983367;28;45830;-82
2023/04/26 01:14:09;;;;;;;;;18.67;15.67;;;;;14.44;54.65;101038.28;4981574;28;47970;-81
2023/04/26 01:16:35;;;;;;;;;21.00;20.00;;;;;14.35;54.85;101048.94;4980409;28;45339;-81
2023/04/26 01:19:11;;;;;;;;;19.67;17.67;;;;;14.74;53.51;101033.88;4982420;28;45549;-81
2023/04/26 01:21:38;;;;;;;;;17.33;16.33;;;;;14.37;55.56;101042.69;4980628;28;45342;-81
2023/04/26 01:24:04;;;;;;;;;16.33;16.33;;;;;14.28;55.55;101021.28;4982510;28;45481;-81
2023/04/26 01:26:31;;;;;;;;;17.67;17.00;;;;;14.27;54.90;101016.78;4983096;28;45420;-81
2023/04/26 01:28:59;;;;;;;;;16.33;16.33;;;;;14.19;54.73;101011.41;4965916;28;45464;-81
2023/04/26 01:31:24;;;;;;;;;16.00;16.00;;;;;14.18;55.63;101023.03;4965108;28;45544;-80
2023/04/26 01:33:50;;;;;;;;;25.33;20.67;;;;;14.20;55.81;101018.56;4981374;28;47579;-80
2023/04/26 01:36:15;;;;;;;;;18.67;18.67;;;;;14.27;56.06;101023.94;4981662;28;45549;-81
2023/04/26 01:38:40;;;;;;;;;15.67;15.67;;;;;14.27;55.89;101021.25;4982901;28;45343;-81
2023/04/26 01:41:06;;;;;;;;;19.00;19.00;;;;;14.29;56.51;101022.16;4978822;28;45522;-81
2023/04/26 01:43:38;;;;;;;;;14.33;13.00;;;;;14.20;54.06;101018.56;4979990;28;47889;-81
2023/04/26 01:46:03;;;;;;;;;23.67;21.67;;;;;14.06;54.68;101012.28;4962753;28;45477;-81
2023/04/26 01:48:29;;;;;;;;;17.33;15.67;;;;;14.12;54.49;101023.00;4980746;28;45397;-81
2023/04/26 01:50:56;;;;;;;;;13.67;13.67;;;;;14.30;55.90;101029.28;4983395;28;45369;-81
2023/04/26 01:53:21;;;;;;;;;12.67;12.67;;;;;13.98;54.65;101027.41;4982018;28;47196;-81
2023/04/26 01:55:46;;;;;;;;;11.67;11.00;;;;;13.98;55.19;101038.09;4981183;28;45365;-81
2023/04/26 01:58:12;;;;;;;;;14.00;12.33;;;;;13.93;55.83;101015.78;4963868;28;45708;-81
2023/04/26 02:00:37;;;;;;;;;13.00;12.00;;;;;13.97;56.21;101018.44;4983690;28;45333;-82
2023/04/26 02:03:09;;;;;;;;;12.00;12.00;;;;;14.49;53.69;101011.50;4981997;28;45706;-81
2023/04/26 02:05:34;;;;;;;;;10.67;8.33;;;;;13.92;55.53;101008.66;4983154;28;45383;-81
2023/04/26 02:08:00;;;;;;;;;13.00;13.00;;;;;13.89;53.51;101003.28;4982763;28;45396;-81
2023/04/26 02:10:25;;;;;;;;;10.33;10.33;;;;;13.85;54.71;101004.16;4964792;28;45431;-81
2023/04/26 02:12:51;;;;;;;;;14.00;13.00;;;;;13.78;55.93;100998.78;4983052;28;45698;-82
2023/04/26 02:15:16;;;;;;;;;11.00;11.00;;;;;13.76;54.49;100997.88;4964666;28;45397;-82
2023/04/26 02:17:41;;;;;;;;;13.00;13.00;;;;;13.78;55.01;101009.47;4965671;28;45448;-81
2023/04/26 02:20:11;;;;;;;;;12.33;10.00;;;;;13.91;56.21;101020.22;4965381;28;45419;-81
2023/04/26 02:22:36;;;;;;;;;12.33;12.33;;;;;13.87;56.41;101016.63;4963841;28;48052;-81
2023/04/26 02:25:02;;;;;;;;;12.33;12.33;;;;;14.03;56.26;101030.09;4981703;28;45331;-82
2023/04/26 02:27:27;;;;;;;;;14.67;14.67;;;;;14.06;56.47;101022.97;4964713;28;45461;-82
2023/04/26 02:29:52;;;;;;;;;12.00;12.00;;;;;14.12;56.46;101012.28;4983657;28;45514;-82
2023/04/26 02:32:18;;;;;;;;;12.50;12.50;;;;;14.12;56.47;101012.28;4982035;28;54192;-82
2023/04/26 02:34:43;;;;;;;;;14.33;9.00;;;;;14.03;54.87;101012.25;4980044;28;45471;-81
2023/04/26 02:37:09;;;;;;;;;13.00;11.33;;;;;13.95;54.59;101008.66;4962988;28;45495;-82
2023/04/26 02:39:35;;;;;;;;;12.00;11.67;;;;;13.93;55.05;100999.72;4976182;28;45548;-82
2023/04/26 02:42:00;;;;;;;;;12.33;12.33;;;;;13.94;55.45;100998.84;4962711;28;48195;-82
2023/04/26 02:44:29;;;;;;;;;11.67;11.00;;;;;14.43;56.58;101007.03;4979770;28;45588;-82
2023/04/26 02:46:55;;;;;;;;;11.33;11.33;;;;;13.95;54.15;101003.31;4979790;28;45492;-82
2023/04/26 02:49:20;;;;;;;;;12.00;10.33;;;;;13.98;56.19;101003.31;4980998;28;45406;-81
2023/04/26 02:51:46;;;;;;;;;11.33;11.33;;;;;14.02;55.62;101005.13;4963646;28;48322;-81
2023/04/26 02:54:11;;;;;;;;;8.00;8.00;;;;;14.09;55.44;100996.22;4963411;28;47862;-82
2023/04/26 02:56:36;;;;;;;;;12.00;10.33;;;;;14.07;56.14;101003.34;4963625;28;45545;-82
2023/04/26 02:59:02;;;;;;;;;11.00;9.33;;;;;14.09;55.75;101000.69;4981620;28;45787;-82
2023/04/26 03:01:27;;;;;;;;;9.33;9.33;;;;;14.08;54.16;100998.88;4965025;28;47184;-81
2023/04/26 03:03:53;;;;;;;;;15.00;12.00;;;;;14.17;55.13;101001.59;4980373;28;45427;-81
2023/04/26 03:06:20;;;;;;;;;11.00;11.00;;;;;14.30;54.66;100994.50;4983160;28;45401;-81
2023/04/26 03:08:45;;;;;;;;;15.67;13.33;;;;;14.04;54.90;101002.44;4963715;28;45760;-81
2023/04/26 03:11:10;;;;;;;;;13.00;12.00;;;;;14.05;55.60;100999.78;4963232;28;47209;-82
2023/04/26 03:13:36;;;;;;;;;13.00;11.67;;;;;14.06;55.40;100992.63;4966188;28;45652;-81
2023/04/26 03:16:01;;;;;;;;;14.00;12.33;;;;;13.99;54.88;100981.03;4965729;28;45504;-81
2023/04/26 03:18:27;;;;;;;;;14.67;13.33;;;;;13.99;53.43;100986.38;4985105;28;45309;-81
2023/04/26 03:20:52;;;;;;;;;13.67;11.67;;;;;13.97;55.39;100990.81;4984497;28;47885;-81
2023/04/26 03:23:18;;;;;;;;;15.67;15.67;;;;;14.06;56.46;100998.91;4967230;28;45485;-82
2023/04/26 03:25:44;;;;;;;;;14.00;11.00;;;;;14.21;54.40;100998.94;4967107;28;45393;-82
2023/04/26 03:28:10;;;;;;;;;16.33;14.67;;;;;14.02;56.32;100994.44;4966031;28;45561;-81
2023/04/26 03:30:35;;;;;;;;;13.67;12.33;;;;;14.09;55.84;100990.88;4983979;28;45775;-82
2023/04/26 03:33:01;;;;;;;;;15.67;15.67;;;;;14.16;55.52;100991.81;4965506;28;45999;-82
2023/04/26 03:35:26;;;;;;;;;11.67;11.67;;;;;14.16;56.55;100994.50;4982927;28;45426;-81
2023/04/26 03:37:51;;;;;;;;;13.00;13.00;;;;;14.27;56.30;100994.50;4984199;28;45495;-80
2023/04/26 03:43:39;;;;;;;;;16.00;13.67;;;;;14.20;55.60;101002.53;4984833;28;45392;-82
2023/04/26 03:46:04;;;;;;;;;13.33;13.33;;;;;14.24;53.20;100999.84;4985226;28;45479;-81
2023/04/26 03:48:29;;;;;;;;;11.67;11.67;;;;;14.18;54.29;100988.25;4984608;28;45305;-81
2023/04/26 03:50:55;;;;;;;;;11.33;11.33;;;;;14.16;54.31;100982.00;4984612;28;45503;-80
2023/04/26 03:56:42;;;;;;;;;14.33;12.67;;;;;14.16;54.83;100981.13;4983615;28;45433;-81
2023/04/26 03:59:08;;;;;;;;;14.00;13.00;;;;;14.22;55.80;100975.78;4966443;28;45400;-82
2023/04/26 04:01:34;;;;;;;;;16.33;14.00;;;;;14.28;55.34;100980.22;4964359;28;47299;-81
2023/04/26 04:03:59;;;;;;;;;15.67;15.67;;;;;14.21;55.13;100958.81;4978454;28;45469;-81
2023/04/26 04:06:26;;;;;;;;;12.67;12.67;;;;;14.41;55.28;100972.25;4962811;28;45535;-81
2023/04/26 04:08:51;;;;;;;;;12.33;12.33;;;;;14.18;55.78;100980.22;4978929;28;45482;-81
2023/04/26 04:11:17;;;;;;;;;15.33;13.00;;;;;14.33;56.23;100983.81;4962381;28;45457;-82
2023/04/26 04:13:42;;;;;;;;;13.33;13.33;;;;;14.41;56.10;100982.06;4962926;28;45870;-82
2023/04/26 04:16:09;;;;;;;;;13.67;12.00;;;;;14.48;55.01;100983.88;4962986;28;45386;-81
2023/04/26 04:18:34;;;;;;;;;18.33;13.00;;;;;14.33;53.95;100984.72;4963626;28;45642;-82
2023/04/26 04:21:00;;;;;;;;;12.67;12.00;;;;;14.26;54.25;100982.00;4962827;28;45950;-82
2023/04/26 04:24:22;;;;;;;;;8.33;8.33;;;;;14.84;54.98;100976.78;4960099;28;45478;-80
2023/04/26 04:26:47;;;;;;;;;15.00;15.00;;;;;14.15;54.15;100977.53;4961545;28;45857;-81
2023/04/26 04:29:12;;;;;;;;;11.67;10.00;;;;;14.16;53.51;100990.03;4962975;28;45479;-82
2023/04/26 04:31:38;;;;;;;;;14.00;14.00;;;;;14.13;55.47;100981.97;4961851;28;46917;-81
2023/04/26 04:34:04;;;;;;;;;16.00;15.00;;;;;14.20;56.33;100994.50;4964022;28;45527;-81
2023/04/26 04:36:30;;;;;;;;;15.33;15.33;;;;;14.29;56.38;100974.88;4946314;28;45490;-81
2023/04/26 04:38:55;;;;;;;;;19.50;15.50;;;;;14.38;56.03;100987.38;4946326;28;45389;-81
2023/04/26 04:41:21;;;;;;;;;19.33;18.67;;;;;14.44;56.22;100982.06;4961874;28;47137;-81
2023/04/26 04:43:46;;;;;;;;;11.67;11.33;;;;;14.50;56.05;100970.47;4962799;28;45476;-82
2023/04/26 04:46:12;;;;;;;;;13.67;12.00;;;;;14.49;55.52;100982.97;4962638;28;45335;-81
2023/04/26 04:48:37;;;;;;;;;13.00;13.00;;;;;14.51;55.44;100982.97;4962982;28;45397;-81
2023/04/26 04:51:03;;;;;;;;;12.33;11.00;;;;;14.47;55.77;100978.50;4962903;28;45345;-81
2023/04/26 04:53:28;;;;;;;;;12.67;12.67;;;;;14.37;53.10;100975.78;4947053;28;45369;-81
2023/04/26 04:55:54;;;;;;;;;18.00;15.33;;;;;14.34;52.17;100964.19;4963422;28;45405;-81
2023/04/26 04:58:21;;;;;;;;;15.00;15.00;;;;;14.21;54.13;100958.81;4945122;28;45632;-82
2023/04/26 05:00:46;;;;;;;;;14.00;13.33;;;;;14.13;54.58;100955.22;4945996;28;47191;-81
2023/04/26 05:03:13;;;;;;;;;16.67;16.67;;;;;14.34;54.40;100964.19;4945009;28;45429;-81
2023/04/26 05:05:39;;;;;;;;;16.33;14.00;;;;;14.41;54.99;100968.69;4962574;28;45424;-81
2023/04/26 05:08:08;;;;;;;;;13.00;11.33;;;;;14.11;53.70;100978.41;4982420;28;45428;-81
2023/04/26 05:10:34;;;;;;;;;14.00;14.00;;;;;14.14;53.95;100973.06;4981183;28;45448;-80
2023/04/26 05:13:00;;;;;;;;;15.67;13.00;;;;;14.07;54.95;100965.91;4981646;28;45404;-81
2023/04/26 05:15:25;;;;;;;;;17.67;15.67;;;;;14.09;53.22;100966.81;4983310;28;45711;-82
2023/04/26 05:17:51;;;;;;;;;16.67;14.00;;;;;14.06;52.23;100973.91;4981811;28;44817;-81
2023/04/26 05:20:16;;;;;;;;;17.33;14.33;;;;;14.06;53.65;100989.97;4982581;28;45550;-82
2023/04/26 05:22:42;;;;;;;;;18.00;15.33;;;;;14.06;54.07;100985.53;4983546;28;45352;-83
2023/04/26 05:25:09;;;;;;;;;12.33;12.00;;;;;14.19;55.17;100992.69;4982555;28;45844;-81
2023/04/26 05:27:36;;;;;;;;;14.67;14.67;;;;;14.09;55.19;100996.22;4981217;28;45456;-81
2023/04/26 05:30:06;;;;;;;;;17.67;14.33;;;;;14.58;55.49;100995.50;4981596;28;45456;-81
2023/04/26 05:32:32;;;;;;;;;22.00;16.67;;;;;14.25;54.65;100986.47;4964285;28;45776;-81
2023/04/26 05:34:57;;;;;;;;;17.67;15.00;;;;;14.31;52.58;100990.94;4978957;28;45511;-81
2023/04/26 05:37:23;;;;;;;;;17.00;14.00;;;;;14.25;53.04;100999.84;4980812;28;45709;-82
2023/04/26 05:39:48;;;;;;;;;16.00;15.33;;;;;14.24;54.14;100997.16;4980181;28;45522;-81
2023/04/26 05:42:13;;;;;;;;;12.00;10.33;;;;;14.23;53.73;100992.72;4964113;28;45422;-82
2023/04/26 05:44:39;;;;;;;;;16.67;13.33;;;;;14.28;54.78;100988.25;4980943;28;45415;-81
2023/04/26 05:47:05;;;;;;;;;14.00;14.00;;;;;14.26;54.27;100992.69;4982199;28;45416;-81
2023/04/26 05:49:30;;;;;;;;;18.67;17.00;;;;;14.32;54.23;100985.63;4982098;28;46122;-81
2023/04/26 05:51:59;;;;;;;;;17.00;14.67;;;;;14.63;55.73;100980.34;4983232;28;45426;-82
2023/04/26 05:54:25;;;;;;;;;16.67;13.00;;;;;14.39;55.13;100983.84;4982724;28;45376;-80
2023/04/26 05:56:51;;;;;;;;;17.67;15.33;;;;;14.41;55.48;100980.25;4965445;28;45892;-81
2023/04/26 05:59:16;;;;;;;;;11.33;11.33;;;;;14.42;54.01;100967.78;4965055;28;47343;-82
2023/04/26 06:01:48;;;;;;;;;16.67;15.00;;;;;14.50;54.60;100976.72;4983025;28;45333;-81
2023/04/26 06:04:13;;;;;;;;;18.67;17.67;;;;;14.52;53.28;100992.78;4979869;28;45495;-82
2023/04/26 06:06:39;;;;;;;;;16.33;14.33;;;;;14.55;53.74;100993.69;4982269;28;45449;-81
2023/04/26 06:09:04;;;;;;;;;19.33;18.00;;;;;14.52;52.59;100988.34;4981042;28;46864;-81
2023/04/26 06:11:30;;;;;;;;;18.67;17.67;;;;;14.56;54.46;100998.19;4979592;28;45578;-81
2023/04/26 06:13:55;;;;;;;;;12.33;10.33;;;;;14.63;54.80;100992.84;4963959;28;45645;-80
2023/04/26 06:16:21;;;;;;;;;17.33;14.33;;;;;14.82;52.40;100994.63;4981080;28;45851;-81
2023/04/26 06:18:47;;;;;;;;;18.33;17.33;;;;;14.71;53.61;101002.66;4964046;28;48356;-81
2023/04/26 06:21:12;;;;;;;;;21.33;19.67;;;;;14.82;54.87;100994.63;4980869;28;45861;-81
2023/04/26 06:23:37;;;;;;;;;16.00;16.00;;;;;14.91;52.40;100999.13;4983468;28;45455;-82
2023/04/26 06:26:04;;;;;;;;;22.00;18.67;;;;;14.96;53.65;100992.84;4983077;28;45417;-81
2023/04/26 06:28:31;;;;;;;;;20.33;17.67;;;;;15.30;52.35;100987.47;4965753;28;47434;-82
2023/04/26 06:30:56;;;;;;;;;19.00;19.00;;;;;14.98;52.83;100996.41;4982426;28;46063;-81
2023/04/26 06:33:21;;;;;;;;;25.00;23.00;;;;;15.02;52.49;100983.94;4983876;28;45451;-81
2023/04/26 06:35:47;;;;;;;;;18.00;18.00;;;;;15.03;52.40;100988.41;4985715;28;45400;-82
2023/04/26 06:38:12;;;;;;;;;17.67;17.67;;;;;15.09;53.00;100982.13;4968960;28;47298;-82
2023/04/26 06:41:21;;;;;;;;;21.33;20.33;;;;;15.78;53.11;100990.97;4984944;28;45396;-82
2023/04/26 06:43:46;;;;;;;;;19.33;19.00;;;;;15.38;54.09;100992.81;4969894;28;45377;-82
2023/04/26 06:46:12;;;;;;;;;19.00;14.33;;;;;15.53;54.32;100992.81;4990021;28;45325;-81
2023/04/26 06:48:37;;;;;;;;;24.33;20.33;;;;;15.65;53.30;100999.00;4979003;28;47090;-82
2023/04/26 06:51:07;;;;;;;;;23.67;23.00;;;;;16.15;51.90;100990.81;4993099;28;45458;-82
2023/04/26 06:54:19;;;;;;;;;23.00;20.67;;;;;16.45;50.84;101004.97;4991080;28;45441;-82
2023/04/26 06:56:45;;;;;;;;;18.67;18.33;;;;;15.94;51.73;100996.28;4977490;28;45384;-82
2023/04/26 06:59:11;;;;;;;;;23.00;20.67;;;;;16.02;52.34;101007.88;4986136;28;45952;-82
2023/04/26 07:01:42;;;;;;;;;23.33;21.67;;;;;16.70;50.10;100997.63;4984263;28;45507;-81
2023/04/26 07:04:09;;;;;;;;;22.00;19.33;;;;;16.23;50.30;101008.69;4962552;28;45510;-81
2023/04/26 07:06:37;;;;;;;;;22.67;19.67;;;;;16.67;49.64;100997.66;4948467;28;44824;-82
2023/04/26 07:09:03;;;;;;;;;22.00;21.33;;;;;16.42;49.74;100996.94;4947840;28;46572;-83
2023/04/26 07:11:29;;;;;;;;;24.33;23.67;;;;;16.53;48.36;101002.25;4949568;28;45325;-80
2023/04/26 07:13:55;;;;;;;;;24.67;22.67;;;;;16.51;52.13;101001.38;4951482;28;45346;-82
2023/04/26 07:16:21;;;;;;;;;30.33;28.00;;;;;16.75;52.18;100997.63;4948844;28;45383;-82
2023/04/26 07:18:47;;;;;;;;;27.67;23.33;;;;;16.94;52.06;100998.41;4950028;28;45958;-81
2023/04/26 07:21:14;;;;;;;;;31.33;29.67;;;;;17.12;51.12;101000.03;4955858;28;45426;-82
2023/04/26 07:23:42;;;;;;;;;25.00;24.67;;;;;17.22;52.80;100964.09;5188259;23;46456;-83
2023/04/26 07:26:16;;;;;;;;;21.33;20.00;;;;;17.57;49.11;101000.50;4977033;28;45555;-82
2023/04/26 07:28:45;;;;;;;;;24.67;20.67;;;;;17.13;51.76;100989.28;4987769;28;45514;-82
2023/04/26 07:31:14;;;;;;;;;33.67;25.67;;;;;17.16;51.13;100967.75;4993367;28;45461;-82
2023/04/26 07:34:03;;;;;;;;;19.67;15.67;;;;;17.73;49.51;100985.06;4980828;28;45310;-82
2023/04/26 07:36:41;;;;;;;;;20.00;17.00;;;;;17.18;47.24;100986.53;4979199;28;45349;-82
2023/04/26 07:39:09;;;;;;;;;17.00;17.00;;;;;17.02;47.82;100958.91;4976813;28;45450;-84
2023/04/26 07:42:21;;;;;;;;;15.67;14.00;;;;;17.79;47.85;100983.22;4972353;28;45652;-82
2023/04/26 07:44:49;;;;;;;;;21.33;21.00;;;;;17.65;46.62;100976.22;4993890;28;45333;-82
2023/04/26 07:47:14;;;;;;;;;28.00;24.00;;;;;17.27;45.96;100978.41;4973286;28;45659;-82
2023/04/26 07:49:40;;;;;;;;;17.33;16.00;;;;;17.29;45.62;100973.00;4984773;28;45449;-82
2023/04/26 07:52:07;;;;;;;;;16.00;15.67;;;;;17.68;48.74;100976.19;4986884;28;45851;-82
2023/04/26 07:54:34;;;;;;;;;19.67;19.33;;;;;17.87;44.11;100977.75;4988349;28;45382;-82
2023/04/26 07:57:00;;;;;;;;;16.67;15.67;;;;;17.57;46.03;100984.34;4970600;28;45366;-82
2023/04/26 07:59:26;;;;;;;;;17.00;16.33;;;;;17.56;45.40;100982.59;4987149;28;46924;-82
2023/04/26 08:01:52;;;;;;;;;20.33;18.00;;;;;17.63;45.74;100981.59;4991225;28;45329;-83
2023/04/26 08:04:31;;;;;;;;;15.00;15.00;;;;;18.15;45.87;100978.31;4991979;28;45354;-83
2023/04/26 08:06:56;;;;;;;;;19.00;17.00;;;;;17.82;48.58;100979.59;4992300;28;45452;-80
2023/04/26 08:09:25;;;;;;;;;22.67;20.67;;;;;18.31;47.95;100975.41;4995380;28;45497;-83
2023/04/26 08:11:51;;;;;;;;;21.00;18.00;;;;;17.89;45.26;100975.06;4990248;28;45484;-81
2023/04/26 08:14:17;;;;;;;;;24.67;21.33;;;;;18.19;48.45;100969.28;4988791;28;45456;-80
2023/04/26 08:16:43;;;;;;;;;15.67;15.67;;;;;18.11;48.63;100979.25;4971080;28;45215;-82
2023/04/26 08:19:08;;;;;;;;;18.33;16.67;;;;;18.12;45.74;100970.28;4967978;28;45378;-81
2023/04/26 08:21:33;;;;;;;;;19.33;16.67;;;;;18.14;47.71;100955.00;4988149;28;45511;-82
2023/04/26 08:23:59;;;;;;;;;19.67;18.33;;;;;18.29;46.10;100961.06;4987802;28;45769;-82
2023/04/26 08:26:26;;;;;;;;;11.33;10.00;;;;;18.68;44.64;100972.16;4973484;28;45523;-81
2023/04/26 08:28:51;;;;;;;;;18.00;16.00;;;;;18.38;45.00;100959.16;4991660;28;45581;-82
2023/04/26 08:31:17;;;;;;;;;21.00;21.00;;;;;18.48;48.26;100932.97;4973137;28;45710;-81
2023/04/26 08:33:45;;;;;;;;;23.67;18.00;;;;;18.69;44.02;100936.25;4972295;28;45406;-82
2023/04/26 08:36:11;;;;;;;;;16.67;16.00;;;;;18.91;45.33;100956.56;4972910;28;45484;-81
2023/04/26 08:38:40;;;;;;;;;18.67;16.67;;;;;19.01;43.79;100953.69;4990795;28;45766;-82
2023/04/26 08:41:22;;;;;;;;;18.67;15.33;;;;;19.55;43.09;100964.38;4982080;28;46141;-82
2023/04/26 08:43:48;;;;;;;;;19.00;15.33;;;;;19.02;41.73;100955.47;4992698;28;45165;-83
2023/04/26 08:46:24;;;;;;;;;17.00;15.33;;;;;19.41;45.12;100944.88;4992382;28;45340;-83
2023/04/26 08:49:04;;;;;;;;;20.67;19.00;;;;;19.52;43.18;100946.44;4975087;28;45400;-83
2023/04/26 08:51:39;;;;;;;;;17.33;17.33;;;;;19.18;42.95;100930.00;4989949;28;44838;-83
2023/04/26 08:54:12;;;;;;;;;17.67;16.33;;;;;19.36;42.94;100945.84;4977011;28;44898;-84
2023/04/26 08:56:40;;;;;;;;;15.33;15.00;;;;;19.27;45.47;100955.91;4978169;28;45420;-83
2023/04/26 08:59:08;;;;;;;;;18.00;18.00;;;;;19.51;44.40;100949.16;4990411;28;46715;-83
2023/04/26 09:01:34;;;;;;;;;19.00;16.67;;;;;19.30;43.09;100956.75;4975969;28;45302;-82
2023/04/26 09:04:01;;;;;;;;;14.00;14.00;;;;;19.17;43.07;100928.25;4994079;28;44751;-81
2023/04/26 09:06:34;;;;;;;;;19.00;15.33;;;;;19.31;43.48;100931.56;4974793;28;45470;-84
2023/04/26 09:09:07;;;;;;;;;12.00;10.33;;;;;19.64;40.62;100948.00;4995298;28;44982;-84
2023/04/26 09:11:59;;;;;;;;;14.67;13.33;;;;;20.22;45.08;100958.50;4976905;28;45272;-84
2023/04/26 09:14:26;;;;;;;;;13.67;11.67;;;;;19.65;43.04;100930.88;4976651;28;45534;-84
2023/04/26 09:17:01;;;;;;;;;12.00;11.67;;;;;20.12;43.10;100923.63;4965075;28;45432;-84
2023/04/26 09:19:43;;;;;;;;;17.33;13.33;;;;;20.35;44.29;100924.91;4990226;28;45392;-84
2023/04/26 09:22:11;;;;;;;;;16.33;11.67;;;;;20.43;42.98;100951.75;4993715;28;45502;-84
2023/04/26 09:24:47;;;;;;;;;11.00;10.33;;;;;20.58;39.82;100941.50;4988187;28;45936;-84
2023/04/26 09:27:13;;;;;;;;;11.67;11.67;;;;;19.99;44.52;100932.91;4986559;28;45458;-84
2023/04/26 09:29:38;;;;;;;;;12.33;10.00;;;;;20.03;42.21;100926.53;4969154;28;46770;-84
2023/04/26 09:32:07;;;;;;;;;10.33;10.00;;;;;20.33;43.88;100951.94;4986058;28;45572;-84
2023/04/26 09:34:43;;;;;;;;;13.00;11.00;;;;;20.66;39.38;100916.09;4991231;28;45589;-84
2023/04/26 09:37:12;;;;;;;;;12.00;12.00;;;;;20.30;39.26;100941.22;4988345;28;45526;-84
2023/04/26 09:40:23;;;;;;;;;10.00;10.00;;;;;20.61;42.19;100928.84;4992860;28;47902;-82
2023/04/26 09:43:06;;;;;;;;;10.00;9.00;;;;;20.34;38.18;100909.63;4970235;28;45658;-83
2023/04/26 09:46:00;;;;;;;;;14.00;11.00;;;;;20.37;41.88;100898.75;4993867;28;45471;-82
2023/04/26 09:48:35;;;;;;;;;10.00;8.67;;;;;20.85;43.44;100939.03;4979613;28;44855;-83
2023/04/26 09:51:03;;;;;;;;;12.67;9.67;;;;;20.90;43.27;100938.91;4962906;28;47096;-83
2023/04/26 09:53:35;;;;;;;;;9.00;7.67;;;;;20.54;40.68;100907.34;4986786;28;46923;-83
2023/04/26 09:56:17;;;;;;;;;13.33;10.00;;;;;20.98;42.48;100918.84;4973562;28;45673;-83
2023/04/26 10:05:27;;;;;;;;;17.00;15.67;;;;;20.31;39.18;100925.91;4993426;28;45493;-82
2023/04/26 10:07:53;;;;;;;;;12.33;10.67;;;;;20.16;37.24;100903.75;4991154;28;45338;-82
2023/04/26 10:10:20;;;;;;;;;10.00;8.67;;;;;20.19;37.34;100918.97;4970870;28;45428;-82
2023/04/26 10:12:46;;;;;;;;;12.67;9.00;;;;;20.17;36.82;100908.19;4968940;28;47297;-83
2023/04/26 10:15:12;;;;;;;;;10.00;10.00;;;;;20.16;37.38;100906.44;4988251;28;44846;-82
2023/04/26 10:17:45;;;;;;;;;9.67;9.67;;;;;20.80;37.80;100908.53;4995126;28;45369;-82
2023/04/26 10:20:13;;;;;;;;;6.00;6.00;;;;;20.77;41.57;100903.22;4992082;28;45388;-82
2023/04/26 10:26:11;;;;;;;;;10.00;10.00;;;;;21.25;42.45;100910.94;4971010;28;46478;-83
2023/04/26 10:28:43;;;;;;;;;13.00;10.67;;;;;22.05;42.49;100903.22;4973610;28;44824;-84
2023/04/26 10:31:39;;;;;;;;;11.00;10.33;;;;;21.88;35.71;100900.16;4961756;28;44864;-83
2023/04/26 10:34:26;;;;;;;;;9.67;9.67;;;;;22.07;41.23;100903.19;4965387;28;46133;-82
2023/04/26 10:37:17;;;;;;;;;9.00;9.00;;;;;22.11;40.20;100867.81;4969689;28;45420;-82
2023/04/26 10:39:44;;;;;;;;;10.67;7.00;;;;;21.87;37.38;100865.88;4971433;28;44995;-81
2023/04/26 10:42:31;;;;;;;;;12.33;11.00;;;;;22.33;38.01;100891.56;4972583;28;45415;-84
2023/04/26 10:44:57;;;;;;;;;8.00;8.00;;;;;21.56;38.05;100881.22;4970986;28;48048;-82
2023/04/26 10:47:31;;;;;;;;;12.67;8.00;;;;;22.16;37.58;100903.78;4969942;28;44793;-82
2023/04/26 10:50:07;;;;;;;;;7.67;7.67;;;;;22.20;35.00;100900.97;4968204;28;45420;-83
2023/04/26 10:53:02;;;;;;;;;5.33;4.33;;;;;22.38;39.20;100889.59;4971602;28;45353;-83
2023/04/26 10:55:38;;;;;;;;;10.00;7.00;;;;;22.47;38.89;100897.41;4961522;28;46485;-81
2023/04/26 10:58:26;;;;;;;;;9.00;9.00;;;;;22.61;41.76;100874.38;4970492;28;45660;-81
2023/04/26 11:01:27;;;;;;;;;7.33;7.00;;;;;22.82;38.65;100881.78;4956102;28;45481;-81
2023/04/26 11:03:58;;;;;;;;;12.33;11.00;;;;;22.75;40.52;100891.06;4980446;28;45369;-82
2023/04/26 11:06:28;;;;;;;;;8.67;8.67;;;;;22.61;36.71;100875.28;4965117;28;47641;-81
2023/04/26 11:08:54;;;;;;;;;11.00;11.00;;;;;22.38;40.38;100857.09;4951400;28;45382;-81
2023/04/26 11:11:25;;;;;;;;;8.67;8.67;;;;;22.90;37.91;100866.13;4953900;28;45036;-80
2023/04/26 11:13:51;;;;;;;;;10.67;9.67;;;;;22.62;40.23;100881.56;4978104;28;45341;-80
2023/04/26 11:16:16;;;;;;;;;10.67;9.33;;;;;22.78;41.70;100885.53;4986239;28;47138;-78
2023/04/26 11:19:03;;;;;;;;;7.67;7.67;;;;;23.17;37.91;100847.13;4985958;28;45717;-83
2023/04/26 11:21:42;;;;;;;;;11.00;8.00;;;;;23.04;39.97;100860.25;4963531;28;44819;-84
2023/04/26 11:24:26;;;;;;;;;7.67;7.33;;;;;22.73;42.01;100846.84;4950584;28;44892;-82
2023/04/26 11:26:55;;;;;;;;;6.67;6.67;;;;;22.75;37.85;100853.13;4964308;28;45797;-83
2023/04/26 11:29:22;;;;;;;;;8.33;8.33;;;;;23.25;38.64;100883.00;4959259;28;45797;-83
2023/04/26 11:32:05;;;;;;;;;12.67;11.00;;;;;23.12;32.79;100860.84;4981372;28;45254;-85
2023/04/26 11:34:35;;;;;;;;;11.67;9.67;;;;;22.46;36.50;100859.50;4949960;28;45473;-82
2023/04/26 11:37:10;;;;;;;;;6.33;6.33;;;;;22.39;37.94;100837.16;4975063;28;47737;-83
2023/04/26 11:39:44;;;;;;;;;8.67;8.67;;;;;22.90;40.00;100866.13;4969372;28;45459;-84